Helenville, Wisconsin
Current Conditions -  °F | °C
As of 8:35 PM on Sunday 23 Nov 2014 (Local Time) from KRYV Reporting Station
Drizzle Drizzle  
Wind Chill: 43°   Ceiling: 300
Heat Index: 46°   Visibility: 5mi
Dew Point: 46°   Wind: 6mph
Humidity: 100%   Direction: 110°ESE
Pressure: 29.25"   Gusts: NA
Location:  43.01°N, 88.7°W
Report Text: KRYV 240235Z AUTO 11005KT 5SM DZ OVC003 08/08 A2925 RMK AO2 T00760076
Loading
Personal Weather Stations






























Interactive Weather Map New forecast layout! Learn more

10-Day Weather Forecast

Advertisements
Track Severe Weather on mobile